Main page
METAR-TAF:

METAR-TAF

Airports :

Cabinda Airport

Cabinda, Angola

latitude: 5-35-50S, longitude: 12-11-17E, elevation: 20 m

Current weather observation

The report was made 1 hour and 10 minutes ago, at 08:00 UTC
Wind 6 kt from the South
Temperature 26°C
Humidity 79%
Pressure 1015 hPa
Visibility 10 km or more
Few clouds at a height of 1000 ft
Scattered clouds at a height of 2000 ft
Broken clouds at a height of 5000 ft

METAR: FNCA 240800Z 18006KT 9999 FEW010 SCT020 BKN050 26/22 Q1015

Time: 10:10 (09:10 UTC)

Forecast

The report was made 10 hours and 10 minutes ago, at 23:00 UTC
Forecast valid from 24 at 00 UTC to 24 at 12 UTC
Wind 5 kt from the West
Visibility 10 km or more
Scattered clouds at a height of 1500 ft
Few clouds at a height of 2300 ft, Cumulonimbus.
Probability 30% :
Temporary
from 24 at 07 UTC to 24 at 12 UTC
Wind 7 kt from the South
Visibility: 7000 m
Overcast at a height of 2000 ft
drizzle

TAF: FNCA 232300Z 2400/2412 26005KT 9999 SCT015 FEW023CB PROB30 TEMPO 2407/2412 19007KT 7000 DZ OVC020

Weather observations and forecasts of more than 4000 airports (METAR and TAF reports).

The available stations are represented by yellow and red dots on the map.

Hover mouse over dot to see the name of the station.

Then click to see weather observations and forecasts.

To change the map : click on the green buttons with a black cross to zoom in, on the green button with a dash to zoom out, or on the green arrows for adjacent maps.


METAR-TAF: